KORH

Worcester Regional Airport

Worcester, Massachusetts, USA
METAR KORH 232304Z 26010KT 1/2SM R11/1800V2800FT FG VV002 06/05 A2950 RMK AO2 T00610050
Observed Flight Rules
Jan-23 @ 23:04 UTC (14 minutes ago) Instrument Flight Rules
Wind Visibility Clouds Conditions
260° at 10 knots 1/2 miles
  • Vertical visibility at 200' AGL
  • Fog
Temperatures Readings
Current 6°C / 43°F
Dewpoint 5°C / 41°F
Humidity 93%
Altimeter 29.5" Hg
Pressure 999 hPa
Elevation 304
METAR KORH 232304Z 26010KT 1/2SM R11/1800V2800FT FG VV002 06/05 A2950 RMK AO2 T00610050
Observed Flight Rules
Jan-23 @ 23:04 UTC
(14 minutes ago)
LIFR
Wind Visibility
260° at 10 knots 1/2 miles
Clouds
  • Vertical visibility at 200' AGL
Conditions
  • Fog
Temperature Dewpoint
6°C / 43°F 5°C / 41°F
Humidity Altimeter Pressure
93% 29.5" Hg 999 hPa